Time;durP1;ratioP1;P1;durP2;ratioP2;P2;SDS_P1;SDS_P2;PMS_P1;PMS_P2;Temp;Humidity;BMP_temperature;BMP_pressure;BME280_temperature;BME280_humidity;BME280_pressure;Samples;Min_cycle;Max_cycle;Signal;HPM_P1;HPM_P2
2022/01/19 00:01:33;;;;;;;10.02;3.67;;;7.70;97.00;;;;;;5064747;28;20028;-48
2022/01/19 00:03:59;;;;;;;7.15;3.25;;;7.70;97.30;;;;;;5060628;28;20102;-48
2022/01/19 00:06:25;;;;;;;9.70;3.55;;;7.70;97.20;;;;;;5059508;28;20036;-48
2022/01/19 00:08:52;;;;;;;9.15;2.60;;;7.60;96.90;;;;;;5059380;28;20100;-48
2022/01/19 00:11:18;;;;;;;7.43;3.15;;;7.70;97.20;;;;;;5063381;28;20025;-48
2022/01/19 00:13:43;;;;;;;6.70;2.88;;;7.60;96.80;;;;;;5061844;28;20150;-48
2022/01/19 00:16:09;;;;;;;8.88;3.65;;;7.60;97.20;;;;;;5060993;28;20033;-48
2022/01/19 00:18:35;;;;;;;6.43;2.78;;;7.70;97.30;;;;;;5064390;28;20518;-48
2022/01/19 00:21:01;;;;;;;8.00;3.67;;;7.60;97.00;;;;;;5062745;28;20025;-48
2022/01/19 00:23:27;;;;;;;16.92;3.75;;;7.70;97.30;;;;;;5059845;28;20025;-48
2022/01/19 00:25:54;;;;;;;11.52;3.33;;;7.70;97.10;;;;;;5061107;28;20025;-48
2022/01/19 00:28:20;;;;;;;6.20;3.10;;;7.70;97.00;;;;;;5062914;28;20032;-48
2022/01/19 00:30:46;;;;;;;16.63;4.10;;;7.60;97.10;;;;;;5063425;28;20198;-48
2022/01/19 00:33:15;;;;;;;6.75;2.65;;;7.70;97.30;;;;;;5064534;28;20107;-48
2022/01/19 00:35:41;;;;;;;10.77;2.95;;;7.60;97.10;;;;;;5060743;28;20335;-48
2022/01/19 00:38:08;;;;;;;12.68;3.28;;;7.60;97.10;;;;;;5062247;28;20036;-48
2022/01/19 00:40:35;;;;;;;9.73;3.17;;;7.60;97.00;;;;;;5062275;28;20028;-48
2022/01/19 00:43:00;;;;;;;8.25;2.85;;;7.60;97.00;;;;;;5062266;28;20051;-48
2022/01/19 00:45:26;;;;;;;7.70;2.83;;;7.60;97.40;;;;;;5060555;28;20151;-48
2022/01/19 00:47:52;;;;;;;10.27;2.75;;;7.60;97.30;;;;;;5060610;28;20480;-48
2022/01/19 00:50:22;;;;;;;11.90;3.25;;;7.70;97.30;;;;;;5063854;28;20070;-48
2022/01/19 00:52:47;;;;;;;10.20;2.93;;;7.60;96.90;;;;;;5062206;28;20367;-48
2022/01/19 00:55:14;;;;;;;8.32;2.78;;;7.60;97.00;;;;;;5058417;28;20423;-48
2022/01/19 00:57:40;;;;;;;7.82;3.03;;;7.60;97.40;;;;;;5064470;28;20036;-48
2022/01/19 01:00:09;;;;;;;5.10;2.70;;;7.70;97.20;;;;;;5062378;28;20052;-48
2022/01/19 01:02:35;;;;;;;9.27;3.25;;;7.60;97.20;;;;;;5057671;28;20056;-48
2022/01/19 01:05:02;;;;;;;7.75;2.72;;;7.60;97.00;;;;;;5061167;28;20094;-48
2022/01/19 01:07:28;;;;;;;12.13;3.75;;;7.60;97.40;;;;;;5062443;28;20044;-48
2022/01/19 01:09:55;;;;;;;4.22;2.60;;;7.60;97.30;;;;;;5058383;28;20112;-48
2022/01/19 01:12:25;;;;;;;3.72;2.53;;;7.60;97.40;;;;;;5061348;28;20025;-48
2022/01/19 01:20:20;;;;;;;4.93;2.50;;;7.60;97.40;;;;;;5061701;28;20074;-48
2022/01/19 01:22:46;;;;;;;13.90;3.65;;;7.70;97.40;;;;;;5061391;28;20025;-48
2022/01/19 01:25:12;;;;;;;10.65;3.00;;;7.60;97.40;;;;;;5058043;28;20454;-48
2022/01/19 01:27:38;;;;;;;8.52;3.58;;;7.60;97.30;;;;;;5063531;28;20040;-48
2022/01/19 01:30:06;;;;;;;6.53;3.70;;;7.70;97.50;;;;;;5062585;28;20075;-48
2022/01/19 01:32:32;;;;;;;9.13;2.78;;;7.60;97.50;;;;;;5057851;28;20032;-48
2022/01/19 01:34:58;;;;;;;7.85;2.78;;;7.60;97.40;;;;;;5063949;28;20028;-49
2022/01/19 01:37:24;;;;;;;10.52;2.75;;;7.60;97.50;;;;;;5062158;28;20090;-48
2022/01/19 01:39:49;;;;;;;9.38;3.83;;;7.60;97.50;;;;;;5056562;28;20031;-48
2022/01/19 01:42:19;;;;;;;9.20;3.75;;;7.60;97.50;;;;;;5060972;28;20028;-48
2022/01/19 01:44:48;;;;;;;4.47;2.35;;;7.60;97.50;;;;;;5060052;28;20121;-48
2022/01/19 01:47:15;;;;;;;9.90;3.13;;;7.60;97.50;;;;;;5061516;28;20064;-48
2022/01/19 01:55:05;;;;;;;7.03;3.35;;;7.60;97.50;;;;;;5055114;28;20039;-48
2022/01/19 01:57:30;;;;;;;16.08;4.03;;;7.60;97.50;;;;;;5060499;28;20075;-48
2022/01/19 01:59:56;;;;;;;8.90;3.30;;;7.60;97.50;;;;;;5063378;28;20028;-48
2022/01/19 02:02:21;;;;;;;8.40;3.22;;;7.60;97.50;;;;;;5058646;28;20040;-48
2022/01/19 02:04:47;;;;;;;6.90;3.00;;;7.60;97.50;;;;;;5058294;28;20032;-47
2022/01/19 02:09:50;;;;;;;7.55;2.75;;;7.60;97.50;;;;;;5058076;28;20083;-48
2022/01/19 02:25:44;;;;;;;4.00;2.50;;;7.60;97.50;;;;;;5054882;28;20078;-47
2022/01/19 02:41:42;;;;;;;6.53;2.78;;;7.60;97.50;;;;;;5059705;28;20086;-48
2022/01/19 02:44:11;;;;;;;12.15;3.42;;;7.60;97.50;;;;;;5058898;28;20041;-47
2022/01/19 02:49:22;;;;;;;7.38;2.55;;;7.60;97.40;;;;;;5060873;28;20039;-48
2022/01/19 02:51:52;;;;;;;9.23;3.17;;;7.60;97.50;;;;;;5060114;28;20025;-48
2022/01/19 02:54:23;;;;;;;9.05;3.33;;;7.60;97.50;;;;;;5057927;28;20029;-48
2022/01/19 02:56:52;;;;;;;6.60;2.97;;;7.60;97.40;;;;;;5056418;28;20112;-48
2022/01/19 02:59:26;;;;;;;9.45;2.80;;;7.60;97.50;;;;;;5060287;28;20154;-48
2022/01/19 03:10:05;;;;;;;4.90;3.10;;;7.60;97.40;;;;;;5057756;28;20550;-47
2022/01/19 03:12:31;;;;;;;5.57;3.55;;;7.60;97.50;;;;;;5057399;28;20078;-49
2022/01/19 03:14:57;;;;;;;8.32;3.28;;;7.60;97.60;;;;;;5059831;28;20104;-48
2022/01/19 03:17:22;;;;;;;7.85;3.28;;;7.60;97.50;;;;;;5057261;28;20033;-48
2022/01/19 03:19:48;;;;;;;11.50;3.47;;;7.60;97.50;;;;;;5056391;28;20412;-48
2022/01/19 03:22:16;;;;;;;6.43;3.15;;;7.60;97.60;;;;;;5058483;28;20029;-48
2022/01/19 03:24:49;;;;;;;11.60;3.33;;;7.60;97.60;;;;;;5057831;28;20036;-48
2022/01/19 03:27:14;;;;;;;6.90;3.05;;;7.60;97.60;;;;;;5056279;28;20054;-49
2022/01/19 03:29:40;;;;;;;9.48;2.90;;;7.60;97.60;;;;;;5059147;28;20365;-48
2022/01/19 03:32:06;;;;;;;15.82;3.45;;;7.60;97.60;;;;;;5059614;28;20025;-47
2022/01/19 03:34:32;;;;;;;5.93;2.88;;;7.60;97.60;;;;;;5061570;28;20029;-47
2022/01/19 03:36:57;;;;;;;7.70;2.92;;;7.60;97.60;;;;;;5056217;28;20067;-48
2022/01/19 03:39:23;;;;;;;8.73;3.92;;;7.60;97.50;;;;;;5057985;28;20390;-48
2022/01/19 03:41:49;;;;;;;9.23;3.50;;;7.60;97.60;;;;;;5052917;28;20477;-48
2022/01/19 03:44:15;;;;;;;13.48;5.07;;;7.60;97.50;;;;;;5060190;28;20024;-48
2022/01/19 03:46:54;;;;;;;7.55;3.55;;;7.60;97.50;;;;;;5059612;28;20055;-48
2022/01/19 03:49:24;;;;;;;5.75;3.90;;;7.60;97.50;;;;;;5058333;28;20039;-48
2022/01/19 03:51:52;;;;;;;6.03;2.85;;;7.60;97.50;;;;;;5058342;28;20751;-48
2022/01/19 03:54:18;;;;;;;8.32;4.43;;;7.60;97.40;;;;;;5060501;28;20082;-48
2022/01/19 03:56:44;;;;;;;10.98;5.53;;;7.60;97.40;;;;;;5055311;28;20381;-48
2022/01/19 03:59:09;;;;;;;14.20;4.78;;;7.60;97.50;;;;;;5058271;28;20028;-48
2022/01/19 04:01:35;;;;;;;17.20;5.15;;;7.60;97.40;;;;;;5059975;28;20036;-48
2022/01/19 04:06:30;;;;;;;12.27;5.07;;;7.60;97.40;;;;;;5059969;28;20086;-48
2022/01/19 04:08:56;;;;;;;9.07;4.47;;;7.60;97.40;;;;;;5057262;28;20357;-47
2022/01/19 04:11:23;;;;;;;8.15;4.00;;;7.60;97.70;;;;;;5053323;28;20119;-48
2022/01/19 04:16:33;;;;;;;9.30;4.45;;;7.60;97.40;;;;;;5060671;28;20029;-48
2022/01/19 04:19:22;;;;;;;10.80;5.07;;;7.70;97.40;;;;;;5059381;28;20040;-47
2022/01/19 04:21:52;;;;;;;9.55;4.50;;;7.60;97.30;;;;;;5058495;28;20512;-47
2022/01/19 04:24:18;;;;;;;;;;;7.60;97.40;;;;;;5059348;28;20026;-48
2022/01/19 04:26:44;;;;;;;10.88;5.40;;;7.60;97.30;;;;;;5055265;28;19974;-48
2022/01/19 04:29:10;;;;;;;7.53;3.45;;;7.60;97.50;;;;;;5057849;28;20107;-48
2022/01/19 04:31:36;;;;;;;6.60;3.17;;;7.60;97.30;;;;;;5060369;28;20111;-48
2022/01/19 04:34:05;;;;;;;4.38;2.05;;;7.60;97.30;;;;;;5059431;28;20021;-48
2022/01/19 04:36:46;;;;;;;6.13;2.95;;;7.60;97.20;;;;;;5059353;28;20025;-48
2022/01/19 04:44:02;;;;;;;15.45;5.00;;;7.60;97.20;;;;;;5057584;28;20468;-48
2022/01/19 04:45:32;;;;;;;10.27;4.47;;;7.60;97.30;;;;;;5063298;28;19958;-48
2022/01/19 05:04:10;;;;;;;9.88;4.35;;;7.60;97.20;;;;;;5058288;28;20095;-48
2022/01/19 05:06:40;;;;;;;5.43;2.83;;;7.60;97.20;;;;;;5061760;28;20048;-48
2022/01/19 05:09:11;;;;;;;12.48;4.13;;;7.60;97.10;;;;;;5063716;28;20353;-48
2022/01/19 05:14:21;;;;;;;14.13;4.55;;;7.60;97.20;;;;;;5062253;28;20068;-48
2022/01/19 05:16:47;;;;;;;5.70;2.80;;;7.60;97.20;;;;;;5062658;28;20068;-48
2022/01/19 05:19:12;;;;;;;7.47;3.83;;;7.60;97.10;;;;;;5063745;28;20055;-48
2022/01/19 05:21:38;;;;;;;14.40;6.18;;;7.60;97.10;;;;;;5058607;28;20037;-48
2022/01/19 05:24:06;;;;;;;11.65;6.20;;;7.60;97.10;;;;;;5062590;28;20120;-48
2022/01/19 05:26:36;;;;;;;9.32;4.63;;;7.60;97.20;;;;;;5058800;28;20029;-48
2022/01/19 05:29:02;;;;;;;12.65;5.28;;;7.70;97.20;;;;;;5060918;28;20032;-48
2022/01/19 05:31:28;;;;;;;13.32;6.28;;;7.60;97.20;;;;;;5060656;28;20036;-48
2022/01/19 05:33:54;;;;;;;10.82;4.85;;;7.60;97.10;;;;;;5063729;28;20427;-48
2022/01/19 05:36:20;;;;;;;16.27;5.90;;;7.60;97.10;;;;;;5063464;28;20025;-48
2022/01/19 05:38:46;;;;;;;16.70;5.32;;;7.60;97.10;;;;;;5060482;28;20021;-48
2022/01/19 05:41:11;;;;;;;14.75;5.68;;;7.60;97.10;;;;;;5058921;28;20064;-48
2022/01/19 05:43:37;;;;;;;8.65;3.75;;;7.60;97.10;;;;;;5059234;28;20112;-48
2022/01/19 05:46:03;;;;;;;13.88;5.70;;;7.60;97.20;;;;;;5063806;28;20028;-48
2022/01/19 05:48:28;;;;;;;2.25;2.05;;;7.70;97.10;;;;;;5057874;28;20029;-48
2022/01/19 05:50:54;;;;;;;8.18;3.67;;;7.60;97.10;;;;;;5059876;28;20090;-48
2022/01/19 05:53:20;;;;;;;10.82;5.20;;;7.60;97.10;;;;;;5058227;28;20466;-48
2022/01/19 05:55:46;;;;;;;11.18;5.85;;;7.60;97.10;;;;;;5059426;28;20032;-48
2022/01/19 05:58:11;;;;;;;3.75;2.55;;;7.60;97.10;;;;;;5058441;28;20032;-48
2022/01/19 06:00:37;;;;;;;10.82;4.70;;;7.60;97.10;;;;;;5059055;28;20040;-48
2022/01/19 06:03:04;;;;;;;7.82;4.93;;;7.60;97.00;;;;;;5056810;28;20178;-47
2022/01/19 06:05:30;;;;;;;12.93;6.53;;;7.60;97.10;;;;;;5059614;28;20374;-48
2022/01/19 06:10:57;;;;;;;10.00;5.50;;;7.60;97.00;;;;;;5062418;28;20074;-48
2022/01/19 06:13:24;;;;;;;9.15;5.43;;;7.60;97.00;;;;;;5054936;28;20560;-47
2022/01/19 06:15:50;;;;;;;18.27;6.40;;;7.60;97.00;;;;;;5057986;28;20029;-48
2022/01/19 06:18:17;;;;;;;11.65;5.97;;;7.60;97.10;;;;;;5062509;28;20462;-48
2022/01/19 06:20:44;;;;;;;13.93;6.03;;;7.70;97.10;;;;;;5061281;28;20037;-48
2022/01/19 06:23:10;;;;;;;9.40;4.40;;;7.70;97.00;;;;;;5062201;28;20020;-47
2022/01/19 06:25:35;;;;;;;4.22;2.75;;;7.60;97.00;;;;;;5064518;28;20036;-47
2022/01/19 06:28:02;;;;;;;18.85;5.88;;;7.60;96.80;;;;;;5064138;28;20076;-48
2022/01/19 06:30:28;;;;;;;4.20;2.55;;;7.60;96.80;;;;;;5062922;28;20016;-48
2022/01/19 06:32:54;;;;;;;10.00;4.18;;;7.70;96.90;;;;;;5064214;28;20024;-48
2022/01/19 06:35:21;;;;;;;12.57;5.88;;;7.60;96.90;;;;;;5062830;28;20027;-47
2022/01/19 06:37:47;;;;;;;15.45;5.80;;;7.70;96.90;;;;;;5062688;28;20043;-48
2022/01/19 06:40:14;;;;;;;9.95;4.53;;;7.70;96.90;;;;;;5065092;28;20025;-47
2022/01/19 06:42:41;;;;;;;8.57;4.25;;;7.70;96.90;;;;;;5064349;28;20384;-48
2022/01/19 06:45:08;;;;;;;15.73;6.35;;;7.70;96.90;;;;;;5062525;28;20120;-48
2022/01/19 06:47:34;;;;;;;9.00;4.22;;;7.70;96.90;;;;;;5061949;28;20071;-48
2022/01/19 06:49:59;;;;;;;12.25;5.35;;;7.60;96.90;;;;;;5062185;28;20024;-48
2022/01/19 06:52:25;;;;;;;17.80;4.53;;;7.70;96.90;;;;;;5061596;28;20032;-48
2022/01/19 06:54:51;;;;;;;8.98;1.77;;;7.70;96.90;;;;;;5061228;28;20045;-48
2022/01/19 06:57:16;;;;;;;8.63;3.30;;;7.70;96.90;;;;;;5058636;28;20024;-48
2022/01/19 06:59:42;;;;;;;12.60;5.65;;;7.70;96.90;;;;;;5061580;28;20021;-48
2022/01/19 07:02:08;;;;;;;15.18;6.68;;;7.70;96.90;;;;;;5061655;28;20350;-48
2022/01/19 07:04:36;;;;;;;10.45;5.53;;;7.70;96.90;;;;;;5058546;28;20059;-47
2022/01/19 07:07:02;;;;;;;10.50;5.38;;;7.70;96.90;;;;;;5062774;28;20041;-48
2022/01/19 07:09:27;;;;;;;12.23;6.43;;;7.70;96.90;;;;;;5061752;28;20082;-48
2022/01/19 07:11:55;;;;;;;8.00;4.57;;;7.70;96.90;;;;;;5057867;28;20324;-48
2022/01/19 07:14:20;;;;;;;9.77;4.72;;;7.70;96.90;;;;;;5063787;28;20046;-47
2022/01/19 07:16:46;;;;;;;10.23;4.05;;;7.60;96.90;;;;;;5061551;28;20031;-47
2022/01/19 07:19:13;;;;;;;8.73;5.13;;;7.70;96.90;;;;;;5064092;28;20021;-48
2022/01/19 07:21:39;;;;;;;2.85;2.00;;;7.70;96.90;;;;;;5058036;28;20369;-48
2022/01/19 07:24:05;;;;;;;9.52;4.07;;;7.70;96.90;;;;;;5056946;28;20194;-48
2022/01/19 07:26:30;;;;;;;12.70;5.43;;;7.70;96.90;;;;;;5057961;28;20020;-48
2022/01/19 07:28:56;;;;;;;13.77;4.97;;;7.70;96.90;;;;;;5057431;28;20059;-47
2022/01/19 07:31:22;;;;;;;10.13;4.55;;;7.70;96.90;;;;;;5057414;28;20021;-48
2022/01/19 07:33:47;;;;;;;11.00;6.07;;;7.70;97.20;;;;;;5067967;28;20028;-48
2022/01/19 07:36:15;;;;;;;16.77;7.07;;;7.70;96.90;;;;;;5069515;28;20021;-48
2022/01/19 07:38:41;;;;;;;11.10;5.40;;;7.70;96.90;;;;;;5063702;28;20417;-48
2022/01/19 07:41:06;;;;;;;15.55;7.07;;;7.70;96.90;;;;;;5069654;28;20083;-47
2022/01/19 07:43:32;;;;;;;5.05;2.75;;;7.70;97.20;;;;;;5071146;28;20364;-48
2022/01/19 07:45:58;;;;;;;7.68;4.38;;;7.70;96.90;;;;;;5068930;28;20024;-48
2022/01/19 07:48:23;;;;;;;10.50;5.30;;;7.70;96.90;;;;;;5073042;28;20036;-48
2022/01/19 07:50:49;;;;;;;2.40;1.55;;;7.70;96.90;;;;;;5069511;28;20032;-48
2022/01/19 07:53:15;;;;;;;11.05;6.45;;;7.60;96.80;;;;;;5073090;28;20025;-48
2022/01/19 07:55:42;;;;;;;5.38;3.28;;;7.70;96.80;;;;;;5070435;28;20346;-48
2022/01/19 07:58:08;;;;;;;11.65;4.68;;;7.70;96.80;;;;;;5062532;28;20071;-48
2022/01/19 08:00:35;;;;;;;2.10;1.38;;;7.70;96.80;;;;;;5054642;28;20053;-48
2022/01/19 08:03:01;;;;;;;8.40;4.63;;;7.70;96.80;;;;;;5059693;28;20043;-47
2022/01/19 08:05:27;;;;;;;20.52;8.52;;;7.70;96.80;;;;;;5060746;28;20025;-48
2022/01/19 08:07:52;;;;;;;9.15;4.15;;;7.70;96.90;;;;;;5066398;28;20123;-48
2022/01/19 08:10:18;;;;;;;5.03;3.40;;;7.70;96.80;;;;;;5057983;28;20104;-48
2022/01/19 08:12:44;;;;;;;5.93;3.15;;;7.70;96.80;;;;;;5061145;28;20033;-48
2022/01/19 08:15:10;;;;;;;8.15;4.90;;;7.70;96.80;;;;;;5062072;28;20048;-48
2022/01/19 08:17:36;;;;;;;12.35;6.47;;;7.70;96.80;;;;;;5072733;28;20058;-48
2022/01/19 08:20:02;;;;;;;14.57;6.55;;;7.70;96.80;;;;;;5060855;28;20032;-48
2022/01/19 08:22:27;;;;;;;3.00;2.38;;;7.70;96.90;;;;;;5066712;28;20044;-48
2022/01/19 08:24:53;;;;;;;1.48;1.35;;;7.70;96.80;;;;;;5064097;28;20366;-47
2022/01/19 08:27:18;;;;;;;6.70;3.72;;;7.70;96.80;;;;;;5067362;28;20089;-48
2022/01/19 08:29:44;;;;;;;13.20;4.78;;;7.70;96.80;;;;;;5065273;28;20024;-48
2022/01/19 08:32:10;;;;;;;8.13;3.88;;;7.70;96.80;;;;;;5066322;28;20044;-48
2022/01/19 08:34:36;;;;;;;17.55;7.07;;;7.70;96.80;;;;;;5060387;28;20020;-47
2022/01/19 08:37:02;;;;;;;12.13;4.82;;;7.70;96.80;;;;;;5065875;28;20060;-48
2022/01/19 08:39:28;;;;;;;9.68;4.53;;;7.70;96.80;;;;;;5069283;28;20497;-47
2022/01/19 08:41:54;;;;;;;10.05;4.43;;;7.70;96.80;;;;;;5067631;28;20436;-48
2022/01/19 08:44:21;;;;;;;11.27;4.35;;;7.70;96.70;;;;;;5060538;28;20027;-48
2022/01/19 08:46:48;;;;;;;11.52;3.95;;;7.70;96.70;;;;;;5067765;28;20038;-47
2022/01/19 08:49:14;;;;;;;8.85;5.10;;;7.70;96.70;;;;;;5070895;28;20462;-48
2022/01/19 08:51:40;;;;;;;9.55;4.40;;;7.70;96.70;;;;;;5073365;28;20348;-48
2022/01/19 08:54:06;;;;;;;10.85;4.03;;;7.70;96.70;;;;;;5072217;28;20036;-48
2022/01/19 08:56:32;;;;;;;13.70;6.43;;;7.80;96.60;;;;;;5056163;28;20033;-48
2022/01/19 08:58:58;;;;;;;4.22;1.83;;;7.80;96.80;;;;;;5054279;28;20033;-47
2022/01/19 09:01:24;;;;;;;9.55;4.03;;;7.70;96.70;;;;;;5062408;28;20087;-48
2022/01/19 09:03:50;;;;;;;13.77;6.53;;;7.80;96.70;;;;;;5063911;28;20024;-48
2022/01/19 09:06:15;;;;;;;8.60;2.40;;;7.80;96.70;;;;;;5064912;28;20025;-47
2022/01/19 09:08:41;;;;;;;12.82;6.53;;;7.80;96.90;;;;;;5057553;28;20032;-48
2022/01/19 09:11:07;;;;;;;22.83;8.48;;;7.80;96.80;;;;;;5062787;28;20060;-47
2022/01/19 09:13:34;;;;;;;18.60;9.75;;;7.80;96.80;;;;;;5062328;28;20098;-48
2022/01/19 09:15:59;;;;;;;9.73;4.53;;;7.80;96.90;;;;;;5060715;28;20028;-48
2022/01/19 09:18:25;;;;;;;14.88;7.20;;;7.80;97.00;;;;;;5062642;28;20140;-47
2022/01/19 09:20:52;;;;;;;16.65;7.60;;;7.80;97.00;;;;;;5062732;28;20468;-48
2022/01/19 09:23:17;;;;;;;10.30;3.80;;;7.80;97.00;;;;;;5061852;28;20032;-47
2022/01/19 09:25:43;;;;;;;15.18;6.15;;;7.80;97.00;;;;;;5060629;28;20052;-48
2022/01/19 09:28:09;;;;;;;23.17;9.38;;;7.80;97.10;;;;;;5058221;28;20119;-48
2022/01/19 09:30:36;;;;;;;7.00;3.13;;;7.80;97.20;;;;;;5063178;28;20024;-48
2022/01/19 09:33:07;;;;;;;11.68;6.75;;;7.80;97.10;;;;;;5056423;28;20497;-48
2022/01/19 09:35:51;;;;;;;15.85;6.15;;;7.90;97.10;;;;;;5070192;28;20032;-48
2022/01/19 09:38:18;;;;;;;11.48;4.47;;;7.90;97.10;;;;;;5063928;28;20036;-48
2022/01/19 09:40:44;;;;;;;8.45;3.42;;;7.90;97.10;;;;;;5071882;28;20099;-48
2022/01/19 09:43:10;;;;;;;13.90;5.75;;;7.90;97.20;;;;;;5060436;28;20127;-48
2022/01/19 09:45:36;;;;;;;21.67;9.43;;;7.90;97.10;;;;;;5071967;28;20020;-47
2022/01/19 09:48:02;;;;;;;3.25;1.75;;;7.90;97.20;;;;;;5062323;28;20391;-47
2022/01/19 09:50:28;;;;;;;12.65;6.00;;;7.90;97.40;;;;;;5060522;28;20440;-48
2022/01/19 09:52:54;;;;;;;6.97;4.28;;;8.00;97.50;;;;;;5062527;28;20089;-48
2022/01/19 09:55:20;;;;;;;13.18;6.65;;;8.00;97.50;;;;;;5068193;28;20078;-48
2022/01/19 09:57:46;;;;;;;4.15;2.85;;;8.00;97.80;;;;;;5065654;28;20122;-48
2022/01/19 10:00:11;;;;;;;14.15;4.30;;;8.00;97.70;;;;;;5055612;28;20033;-48
2022/01/19 10:02:37;;;;;;;21.70;10.35;;;8.10;97.90;;;;;;5065149;28;20477;-48
2022/01/19 10:05:07;;;;;;;17.58;6.47;;;8.10;98.10;;;;;;5057720;28;20029;-48
2022/01/19 10:07:33;;;;;;;5.57;2.75;;;8.10;98.30;;;;;;5064527;28;20188;-48
2022/01/19 10:10:03;;;;;;;21.38;8.85;;;8.10;98.40;;;;;;5072730;28;20063;-48
2022/01/19 10:18:20;;;;;;;16.65;8.32;;;8.20;98.50;;;;;;5064723;28;20051;-48
2022/01/19 10:20:48;;;;;;;18.45;7.88;;;8.20;98.60;;;;;;5066317;28;20369;-48
2022/01/19 10:23:36;;;;;;;21.05;9.00;;;8.20;98.60;;;;;;5068720;28;20029;-48
2022/01/19 10:26:10;;;;;;;21.13;7.18;;;8.20;98.80;;;;;;5064363;28;20061;-48
2022/01/19 10:28:59;;;;;;;18.08;6.50;;;8.30;98.80;;;;;;5067235;28;20040;-47
2022/01/19 10:31:26;;;;;;;19.88;8.43;;;8.30;98.90;;;;;;5069301;28;20105;-48
2022/01/19 10:34:20;;;;;;;2.25;0.90;;;8.30;98.70;;;;;;5060010;28;20033;-47
2022/01/19 10:36:55;;;;;;;19.92;8.68;;;8.30;98.90;;;;;;5070298;28;20048;-48
2022/01/19 10:39:23;;;;;;;0.55;0.55;;;8.30;98.70;;;;;;5071370;28;20020;-48
2022/01/19 10:41:57;;;;;;;16.83;6.57;;;8.40;99.30;;;;;;5072146;28;20054;-48
2022/01/19 10:44:32;;;;;;;19.58;7.25;;;8.40;98.80;;;;;;5060278;28;20179;-48
2022/01/19 10:46:57;;;;;;;8.32;4.47;;;8.40;98.90;;;;;;5072416;28;20028;-48
2022/01/19 10:49:23;;;;;;;16.73;5.82;;;8.30;99.00;;;;;;5069726;28;20021;-48
2022/01/19 10:51:56;;;;;;;13.27;6.50;;;8.30;99.50;;;;;;5071050;28;20020;-48
2022/01/19 10:54:25;;;;;;;17.38;7.93;;;8.40;99.40;;;;;;5066331;28;20051;-48
2022/01/19 10:56:57;;;;;;;15.93;7.82;;;8.40;99.30;;;;;;5069693;28;20029;-48
2022/01/19 10:59:27;;;;;;;16.58;7.10;;;8.40;99.60;;;;;;5056750;28;20124;-48
2022/01/19 11:01:56;;;;;;;12.82;5.63;;;8.40;99.70;;;;;;5071739;28;20066;-48
2022/01/19 11:04:24;;;;;;;4.20;2.30;;;8.40;99.70;;;;;;5062639;28;20074;-48
2022/01/19 11:06:55;;;;;;;11.18;5.45;;;8.50;99.90;;;;;;5070808;28;20025;-48
2022/01/19 11:09:27;;;;;;;8.38;3.33;;;8.60;99.90;;;;;;5066532;28;20136;-48
2022/01/19 11:11:55;;;;;;;6.25;2.55;;;8.70;99.90;;;;;;5064407;28;20020;-48
2022/01/19 11:14:23;;;;;;;23.75;9.15;;;8.70;99.70;;;;;;5061321;28;20025;-48
2022/01/19 11:16:51;;;;;;;15.85;3.90;;;8.80;99.80;;;;;;5070076;28;20033;-48
2022/01/19 11:19:17;;;;;;;26.33;9.80;;;8.80;99.80;;;;;;5064004;28;20080;-48
2022/01/19 11:22:01;;;;;;;12.70;4.72;;;8.80;99.80;;;;;;5074097;28;20047;-48
2022/01/19 11:24:37;;;;;;;17.67;6.45;;;8.80;99.90;;;;;;5061284;28;20012;-48
2022/01/19 11:27:03;;;;;;;18.65;8.88;;;8.80;99.80;;;;;;5063960;28;20076;-48
2022/01/19 11:29:30;;;;;;;9.18;4.85;;;8.80;99.90;;;;;;5063533;28;20043;-49
2022/01/19 11:31:57;;;;;;;16.20;4.90;;;8.80;99.90;;;;;;5064308;28;20124;-48
2022/01/19 11:34:46;;;;;;;20.63;7.88;;;8.80;99.90;;;;;;5061571;28;20024;-48
2022/01/19 11:37:12;;;;;;;9.65;4.53;;;8.80;99.80;;;;;;5066099;28;20036;-48
2022/01/19 11:40:00;;;;;;;15.60;6.25;;;8.80;99.90;;;;;;5058423;28;20028;-48
2022/01/19 11:42:26;;;;;;;2.72;2.03;;;8.80;99.90;;;;;;5064382;28;20445;-48
2022/01/19 11:44:52;;;;;;;1.25;1.15;;;8.80;99.90;;;;;;5067117;28;20040;-47
2022/01/19 11:47:24;;;;;;;12.18;4.47;;;8.90;99.90;;;;;;5066076;28;20033;-48
2022/01/19 11:50:00;;;;;;;11.77;3.80;;;8.90;99.90;;;;;;5065609;28;20517;-48
2022/01/19 11:52:33;;;;;;;13.57;5.53;;;8.90;99.80;;;;;;5070674;28;20028;-48
2022/01/19 11:55:17;;;;;;;7.70;2.95;;;8.90;99.70;;;;;;5077808;28;20174;-48
2022/01/19 11:57:45;;;;;;;6.43;2.15;;;8.90;99.80;;;;;;5066407;28;20060;-48
2022/01/19 12:00:13;;;;;;;8.10;3.58;;;8.80;99.90;;;;;;5065685;28;20016;-48
2022/01/19 12:02:42;;;;;;;16.55;6.55;;;8.80;99.90;;;;;;5060771;28;20029;-48
2022/01/19 12:05:10;;;;;;;13.65;6.75;;;8.90;99.90;;;;;;5062242;28;20025;-48
2022/01/19 12:07:53;;;;;;;10.10;5.40;;;8.80;99.90;;;;;;5071753;28;20302;-48
2022/01/19 12:10:39;;;;;;;9.77;5.03;;;8.80;99.90;;;;;;5070281;28;20120;-48
2022/01/19 12:13:31;;;;;;;1.67;0.77;;;8.80;99.90;;;;;;5064388;28;20499;-48
2022/01/19 12:16:02;;;;;;;0.85;0.85;;;8.80;99.90;;;;;;5063772;28;20027;-48
2022/01/19 12:18:48;;;;;;;11.15;3.80;;;8.80;99.90;;;;;;5068708;28;20032;-48
2022/01/19 12:21:21;;;;;;;12.20;4.65;;;8.90;99.90;;;;;;5068336;28;20029;-48
2022/01/19 12:23:50;;;;;;;8.13;3.25;;;8.90;99.90;;;;;;5067453;28;20028;-48
2022/01/19 12:26:16;;;;;;;17.15;6.97;;;8.90;99.90;;;;;;5065926;28;20614;-48
2022/01/19 12:28:49;;;;;;;16.05;6.60;;;8.90;99.90;;;;;;5072254;28;20029;-48
2022/01/19 12:31:36;;;;;;;13.93;6.13;;;8.90;99.90;;;;;;5063887;28;20020;-49
2022/01/19 12:34:04;;;;;;;7.25;4.60;;;8.90;99.90;;;;;;5065660;28;20029;-48
2022/01/19 12:36:48;;;;;;;6.13;2.85;;;8.90;99.90;;;;;;5065639;28;20044;-48
2022/01/19 12:39:26;;;;;;;7.00;2.42;;;8.90;99.90;;;;;;5069220;28;20025;-48
2022/01/19 12:42:01;;;;;;;10.20;3.67;;;8.90;99.90;;;;;;5058711;28;20112;-48
2022/01/19 12:44:46;;;;;;;10.38;4.75;;;9.00;99.90;;;;;;5066177;28;20063;-48
2022/01/19 12:47:27;;;;;;;3.45;2.85;;;9.00;99.90;;;;;;5063969;28;20075;-48
2022/01/19 12:50:19;;;;;;;8.75;3.92;;;8.90;99.90;;;;;;5067627;28;20028;-48
2022/01/19 12:52:54;;;;;;;16.50;7.25;;;9.00;99.90;;;;;;5066521;28;20319;-48
2022/01/19 12:55:24;;;;;;;21.77;9.00;;;9.00;99.90;;;;;;5065747;28;20051;-48
2022/01/19 12:57:52;;;;;;;17.58;9.05;;;8.90;99.90;;;;;;5068392;28;20032;-48
2022/01/19 13:00:20;;;;;;;18.38;7.28;;;8.90;99.90;;;;;;5057669;28;20416;-48
2022/01/19 13:02:46;;;;;;;22.65;9.38;;;8.90;99.90;;;;;;5058889;28;20361;-48
2022/01/19 13:05:15;;;;;;;7.00;3.28;;;8.90;99.90;;;;;;5064557;28;20028;-48
2022/01/19 13:07:52;;;;;;;3.95;2.45;;;9.00;99.90;;;;;;5067916;28;20039;-49
2022/01/19 13:15:52;;;;;;;15.52;6.85;;;9.00;99.90;;;;;;5060588;28;20099;-48
2022/01/19 13:18:42;;;;;;;28.48;10.32;;;9.00;99.90;;;;;;5063082;28;20041;-48
2022/01/19 13:21:12;;;;;;;15.50;6.70;;;9.00;99.90;;;;;;5065034;28;20104;-48
2022/01/19 13:23:53;;;;;;;19.42;8.45;;;9.00;99.90;;;;;;5062066;28;20123;-49
2022/01/19 13:26:19;;;;;;;15.30;5.85;;;9.00;99.90;;;;;;5067404;28;20066;-47
2022/01/19 13:28:45;;;;;;;15.60;7.57;;;9.00;99.90;;;;;;5067239;28;20032;-48
2022/01/19 13:31:20;;;;;;;21.27;8.95;;;9.00;99.90;;;;;;5056745;28;20048;-48
2022/01/19 13:33:53;;;;;;;16.73;8.50;;;9.00;99.90;;;;;;5065408;28;20167;-48
2022/01/19 13:36:26;;;;;;;8.70;4.13;;;9.00;99.90;;;;;;5063370;28;20028;-48
2022/01/19 13:38:54;;;;;;;14.20;5.55;;;9.00;99.80;;;;;;5065317;28;20024;-48
2022/01/19 13:41:20;;;;;;;15.23;5.65;;;9.00;99.60;;;;;;5060495;28;20154;-48
2022/01/19 13:43:45;;;;;;;19.25;8.23;;;9.00;99.90;;;;;;5066606;28;20408;-48
2022/01/19 13:46:15;;;;;;;11.88;6.38;;;9.00;99.60;;;;;;5064941;28;20020;-48
2022/01/19 13:48:44;;;;;;;14.68;4.57;;;9.00;99.70;;;;;;5064809;28;20606;-48
2022/01/19 13:51:14;;;;;;;18.02;7.07;;;9.00;99.80;;;;;;5066750;28;20028;-47
2022/01/19 13:53:40;;;;;;;;;;;9.00;99.70;;;;;;5067009;28;20035;-48
2022/01/19 13:56:11;;;;;;;15.35;7.00;;;9.00;99.60;;;;;;5065622;28;19913;-48
2022/01/19 13:58:36;;;;;;;22.17;9.30;;;9.00;99.40;;;;;;5065004;28;20024;-48
2022/01/19 14:01:08;;;;;;;14.23;6.50;;;9.00;99.40;;;;;;5059925;28;20029;-48
2022/01/19 14:04:04;;;;;;;18.63;8.90;;;9.00;99.20;;;;;;5060613;28;20016;-49
2022/01/19 14:06:32;;;;;;;8.15;4.70;;;9.00;99.40;;;;;;5066018;28;20043;-48
2022/01/19 14:09:11;;;;;;;18.85;7.70;;;9.00;99.30;;;;;;5063355;28;20078;-48
2022/01/19 14:11:38;;;;;;;19.52;6.47;;;9.00;99.30;;;;;;5063780;28;20032;-48
2022/01/19 14:14:07;;;;;;;20.13;9.38;;;9.00;99.20;;;;;;5058772;28;20036;-48
2022/01/19 14:16:38;;;;;;;23.25;6.38;;;9.00;99.10;;;;;;5058389;28;20473;-48
2022/01/19 14:19:20;;;;;;;17.35;8.32;;;9.10;99.60;;;;;;5060076;28;20040;-48
2022/01/19 14:21:59;;;;;;;21.98;8.80;;;9.00;99.50;;;;;;5064696;28;20509;-48
2022/01/19 14:24:26;;;;;;;14.68;6.97;;;9.00;99.40;;;;;;5057821;28;20025;-48
2022/01/19 14:26:54;;;;;;;23.92;9.65;;;9.00;99.60;;;;;;5062992;28;20036;-48
2022/01/19 14:29:21;;;;;;;12.18;5.10;;;9.00;99.70;;;;;;5063673;28;20028;-48
2022/01/19 14:31:59;;;;;;;18.63;8.43;;;9.00;99.70;;;;;;5063736;28;20036;-48
2022/01/19 14:34:42;;;;;;;17.55;7.18;;;9.00;99.70;;;;;;5064238;28;20464;-48